Time;durP1;ratioP1;P1;durP2;ratioP2;P2;SDS_P1;SDS_P2;PMS_P1;PMS_P2;Temp;Humidity;BMP_temperature;BMP_pressure;BME280_temperature;BME280_humidity;BME280_pressure;Samples;Min_cycle;Max_cycle;Signal;HPM_P1;HPM_P2
2021/11/13 00:01:14;;;;;;;39.42;26.85;;;3.90;99.90;;;;;;5035698;28;20251;-67
2021/11/13 00:03:41;;;;;;;41.92;27.83;;;3.80;99.90;;;;;;5035755;28;20262;-68
2021/11/13 00:06:08;;;;;;;44.30;27.55;;;3.60;99.90;;;;;;5035459;28;20204;-67
2021/11/13 00:08:36;;;;;;;41.08;26.83;;;3.60;99.90;;;;;;5035784;28;20211;-68
2021/11/13 00:11:03;;;;;;;35.95;25.02;;;3.60;99.90;;;;;;5035618;28;20286;-68
2021/11/13 00:13:33;;;;;;;35.15;24.83;;;3.80;99.90;;;;;;5035310;28;20299;-68
2021/11/13 00:16:00;;;;;;;36.58;25.17;;;4.00;99.90;;;;;;5035131;28;20303;-68
2021/11/13 00:18:26;;;;;;;34.63;23.95;;;4.10;99.90;;;;;;5035624;28;20298;-68
2021/11/13 00:20:53;;;;;;;36.28;24.33;;;4.20;99.90;;;;;;5035507;28;20270;-67
2021/11/13 00:23:20;;;;;;;32.35;21.67;;;4.20;99.90;;;;;;5035404;28;20207;-68
2021/11/13 00:25:48;;;;;;;34.30;23.33;;;4.30;99.90;;;;;;5034958;28;20223;-68
2021/11/13 00:28:16;;;;;;;35.75;23.73;;;4.30;99.90;;;;;;5035203;28;20777;-68
2021/11/13 00:30:43;;;;;;;33.70;23.92;;;4.30;99.90;;;;;;5035351;28;20202;-68
2021/11/13 00:33:10;;;;;;;37.40;24.73;;;4.40;99.90;;;;;;5035277;28;20295;-68
2021/11/13 00:35:37;;;;;;;36.53;24.50;;;4.40;99.90;;;;;;5034390;28;20210;-68
2021/11/13 00:38:04;;;;;;;35.67;24.80;;;4.50;99.90;;;;;;5035260;28;20226;-68
2021/11/13 00:40:31;;;;;;;43.88;26.42;;;4.50;99.90;;;;;;5035037;28;20227;-67
2021/11/13 00:42:59;;;;;;;37.40;24.83;;;4.50;99.90;;;;;;5034986;28;20208;-68
2021/11/13 00:45:26;;;;;;;35.78;24.08;;;4.50;99.90;;;;;;5034582;28;20658;-68
2021/11/13 00:47:53;;;;;;;35.70;24.77;;;4.50;99.90;;;;;;5034976;28;20224;-67
2021/11/13 00:50:20;;;;;;;36.20;25.35;;;4.60;99.90;;;;;;5034909;28;20235;-68
2021/11/13 00:52:47;;;;;;;34.53;24.95;;;4.60;99.90;;;;;;5035200;28;20291;-68
2021/11/13 00:55:17;;;;;;;37.50;23.65;;;4.60;99.90;;;;;;5034551;28;20204;-69
2021/11/13 00:57:44;;;;;;;36.78;24.63;;;4.70;99.90;;;;;;5034421;28;20227;-67
2021/11/13 01:00:17;;;;;;;37.38;24.58;;;4.70;99.90;;;;;;5034513;28;20222;-68
2021/11/13 01:02:44;;;;;;;36.67;23.67;;;4.80;99.90;;;;;;5034727;28;20204;-68
2021/11/13 01:05:11;;;;;;;34.92;24.25;;;4.80;99.90;;;;;;5034338;28;20298;-67
2021/11/13 01:07:38;;;;;;;34.08;24.45;;;4.70;99.90;;;;;;5034216;28;20228;-68
2021/11/13 01:10:09;;;;;;;36.78;25.90;;;4.70;99.90;;;;;;5034483;28;20238;-67
2021/11/13 01:12:38;;;;;;;40.95;26.73;;;4.60;99.90;;;;;;5034515;28;20210;-67
2021/11/13 01:15:06;;;;;;;40.03;26.15;;;4.50;99.90;;;;;;5034224;28;20204;-67
2021/11/13 01:17:35;;;;;;;40.78;27.67;;;4.50;99.90;;;;;;5034182;28;20238;-68
2021/11/13 01:20:03;;;;;;;37.60;25.63;;;4.60;99.90;;;;;;5034349;28;20208;-68
2021/11/13 01:22:30;;;;;;;35.28;25.55;;;4.70;99.90;;;;;;5034232;28;20321;-67
2021/11/13 01:24:57;;;;;;;40.05;25.65;;;4.70;99.90;;;;;;5034157;28;20204;-68
2021/11/13 01:27:23;;;;;;;39.35;25.45;;;4.70;99.90;;;;;;5034488;28;20220;-68
2021/11/13 01:29:50;;;;;;;41.50;26.65;;;4.70;99.90;;;;;;5034031;28;20214;-68
2021/11/13 01:32:18;;;;;;;43.08;27.92;;;4.80;99.90;;;;;;5034061;28;20654;-68
2021/11/13 01:34:47;;;;;;;43.13;27.50;;;4.80;99.90;;;;;;5033874;28;20207;-68
2021/11/13 01:37:14;;;;;;;41.70;28.60;;;4.80;99.90;;;;;;5033846;28;20314;-68
2021/11/13 01:39:40;;;;;;;41.22;27.85;;;4.90;99.90;;;;;;5033943;28;20585;-68
2021/11/13 01:42:08;;;;;;;44.35;28.75;;;4.80;99.90;;;;;;5034157;28;20235;-67
2021/11/13 01:44:35;;;;;;;39.53;27.95;;;4.80;99.90;;;;;;5033969;28;20208;-68
2021/11/13 01:47:03;;;;;;;41.67;28.40;;;4.80;99.90;;;;;;5033741;28;20220;-67
2021/11/13 01:49:30;;;;;;;43.85;28.20;;;4.80;99.90;;;;;;5033528;28;20744;-67
2021/11/13 01:51:58;;;;;;;48.08;29.85;;;4.70;99.90;;;;;;5033821;28;20227;-67
2021/11/13 01:54:27;;;;;;;50.55;27.20;;;4.80;99.90;;;;;;5033602;28;20200;-69
2021/11/13 01:56:54;;;;;;;59.25;27.27;;;4.80;99.90;;;;;;5033645;28;20230;-68
2021/11/13 01:59:24;;;;;;;40.42;26.10;;;4.80;99.90;;;;;;5033745;28;20204;-68
2021/11/13 02:01:51;;;;;;;49.75;26.95;;;4.70;99.90;;;;;;5033551;28;20664;-68
2021/11/13 02:04:18;;;;;;;48.17;26.80;;;4.70;99.90;;;;;;5033634;28;20206;-68
2021/11/13 02:06:45;;;;;;;46.85;27.02;;;4.70;99.90;;;;;;5033239;28;20226;-67
2021/11/13 02:09:13;;;;;;;43.63;26.45;;;4.70;99.90;;;;;;5033681;28;20204;-68
2021/11/13 02:11:40;;;;;;;43.20;26.75;;;4.80;99.90;;;;;;5033597;28;20206;-67
2021/11/13 02:14:07;;;;;;;47.20;26.27;;;4.80;99.90;;;;;;5033582;28;20207;-67
2021/11/13 02:16:33;;;;;;;47.55;26.13;;;4.90;99.90;;;;;;5033083;28;20310;-68
2021/11/13 02:19:01;;;;;;;57.42;27.15;;;4.90;99.90;;;;;;5034181;28;20199;-67
2021/11/13 02:21:29;;;;;;;42.92;25.25;;;4.90;99.90;;;;;;5033205;28;20322;-68
2021/11/13 02:23:56;;;;;;;49.60;26.65;;;4.90;99.90;;;;;;5033454;28;20298;-67
2021/11/13 02:26:25;;;;;;;39.30;25.40;;;4.90;99.90;;;;;;5033169;28;20565;-68
2021/11/13 02:28:54;;;;;;;54.80;28.27;;;4.80;99.90;;;;;;5033226;28;20246;-67
2021/11/13 02:31:32;;;;;;;48.17;26.42;;;4.80;99.90;;;;;;5033359;28;20219;-68
2021/11/13 02:33:59;;;;;;;52.28;28.13;;;4.80;99.90;;;;;;5033341;28;20204;-68
2021/11/13 02:36:26;;;;;;;45.38;27.42;;;4.80;99.90;;;;;;5033104;28;20291;-67
2021/11/13 02:38:56;;;;;;;49.65;29.40;;;4.80;99.90;;;;;;5033366;28;20206;-68
2021/11/13 02:41:26;;;;;;;45.40;28.67;;;4.90;99.90;;;;;;5033288;28;20227;-68
2021/11/13 02:43:54;;;;;;;56.45;29.10;;;4.90;99.90;;;;;;5033283;28;20266;-68
2021/11/13 02:46:21;;;;;;;45.97;25.77;;;5.00;99.90;;;;;;5033008;28;20204;-68
2021/11/13 02:48:49;;;;;;;49.03;27.10;;;5.10;99.90;;;;;;5033309;28;20300;-68
2021/11/13 02:51:16;;;;;;;96.65;28.08;;;5.10;99.90;;;;;;5033216;28;20196;-67
2021/11/13 02:53:45;;;;;;;40.63;26.27;;;5.00;99.90;;;;;;5033479;28;20210;-68
2021/11/13 02:56:13;;;;;;;69.50;28.20;;;4.80;99.90;;;;;;5032887;28;20204;-68
2021/11/13 02:58:41;;;;;;;51.42;26.95;;;4.70;99.90;;;;;;5035796;28;20299;-68
2021/11/13 03:01:11;;;;;;;60.10;30.25;;;4.60;99.90;;;;;;5036885;28;20310;-67
2021/11/13 03:03:39;;;;;;;44.75;27.17;;;4.60;99.90;;;;;;5037000;28;20566;-67
2021/11/13 03:06:10;;;;;;;41.72;27.98;;;4.70;99.90;;;;;;5036729;28;20211;-68
2021/11/13 03:08:38;;;;;;;50.17;28.35;;;4.70;99.90;;;;;;5036862;28;20192;-68
2021/11/13 03:11:08;;;;;;;45.42;26.35;;;4.80;99.90;;;;;;5036778;28;20206;-68
2021/11/13 03:13:39;;;;;;;46.67;28.10;;;4.80;99.90;;;;;;5036793;28;20539;-68
2021/11/13 03:16:07;;;;;;;48.33;27.33;;;4.80;99.90;;;;;;5036477;28;20219;-68
2021/11/13 03:18:34;;;;;;;50.08;27.13;;;4.90;99.90;;;;;;5036443;28;20194;-68
2021/11/13 03:21:05;;;;;;;49.22;27.10;;;4.90;99.90;;;;;;5036497;28;20228;-69
2021/11/13 03:23:32;;;;;;;40.60;26.60;;;4.80;99.90;;;;;;5036577;28;20215;-68
2021/11/13 03:26:01;;;;;;;43.55;26.27;;;4.90;99.90;;;;;;5036355;28;20295;-68
2021/11/13 03:28:30;;;;;;;43.70;26.63;;;4.90;99.90;;;;;;5036506;28;20235;-67
2021/11/13 03:31:01;;;;;;;41.75;26.85;;;4.80;99.90;;;;;;5036388;28;20196;-68
2021/11/13 03:33:29;;;;;;;44.40;26.70;;;4.70;99.90;;;;;;5036460;28;20212;-68
2021/11/13 03:35:56;;;;;;;40.28;25.88;;;4.70;99.90;;;;;;5036424;28;20208;-67
2021/11/13 03:38:23;;;;;;;36.92;25.30;;;4.70;99.90;;;;;;5036232;28;20310;-68
2021/11/13 03:40:51;;;;;;;39.15;25.65;;;4.70;99.90;;;;;;5036144;28;20207;-67
2021/11/13 03:43:18;;;;;;;41.22;26.02;;;4.80;99.90;;;;;;5036156;28;20204;-68
2021/11/13 03:45:47;;;;;;;39.42;24.45;;;4.70;99.90;;;;;;5035843;28;20579;-67
2021/11/13 03:48:15;;;;;;;37.20;24.80;;;4.80;99.90;;;;;;5036007;28;20224;-68
2021/11/13 03:50:42;;;;;;;32.97;23.70;;;4.70;99.90;;;;;;5036020;28;20210;-68
2021/11/13 03:53:09;;;;;;;36.25;24.30;;;4.70;99.90;;;;;;5036000;28;20573;-68
2021/11/13 03:55:37;;;;;;;33.42;22.63;;;4.80;99.90;;;;;;5035799;28;20207;-67
2021/11/13 03:58:05;;;;;;;37.15;24.23;;;4.70;99.90;;;;;;5035937;28;20311;-68
2021/11/13 04:00:32;;;;;;;33.15;22.95;;;4.80;99.90;;;;;;5035867;28;20295;-68
2021/11/13 04:03:00;;;;;;;32.25;21.95;;;4.80;99.90;;;;;;5035674;28;20651;-67
2021/11/13 04:05:28;;;;;;;34.58;23.38;;;4.70;99.90;;;;;;5035502;28;20204;-68
2021/11/13 04:07:55;;;;;;;32.85;23.25;;;4.60;99.90;;;;;;5035603;28;20224;-67
2021/11/13 04:10:22;;;;;;;31.10;22.35;;;4.70;99.90;;;;;;5034524;28;20640;-67
2021/11/13 04:12:50;;;;;;;31.15;21.42;;;4.50;99.90;;;;;;5035344;28;20287;-67
2021/11/13 04:15:17;;;;;;;33.40;22.75;;;4.40;99.90;;;;;;5035313;28;20200;-68
2021/11/13 04:17:46;;;;;;;37.92;23.35;;;4.40;99.90;;;;;;5035421;28;20234;-68
2021/11/13 04:20:13;;;;;;;36.78;23.48;;;4.30;99.90;;;;;;5035479;28;20254;-68
2021/11/13 04:22:42;;;;;;;29.95;21.35;;;4.40;99.90;;;;;;5035462;28;20585;-68
2021/11/13 04:25:10;;;;;;;32.97;22.48;;;4.50;99.90;;;;;;5035159;28;20291;-68
2021/11/13 04:27:37;;;;;;;31.30;22.40;;;4.70;99.90;;;;;;5035062;28;20310;-67
2021/11/13 04:30:06;;;;;;;30.08;21.98;;;4.50;99.90;;;;;;5035328;28;20585;-68
2021/11/13 04:32:34;;;;;;;30.83;22.45;;;4.50;99.90;;;;;;5035131;28;20208;-67
2021/11/13 04:35:15;;;;;;;31.23;21.88;;;4.50;99.90;;;;;;5034820;28;20714;-68
2021/11/13 04:37:46;;;;;;;33.58;22.00;;;4.60;99.90;;;;;;5035386;28;20224;-67
2021/11/13 04:40:13;;;;;;;32.78;23.05;;;4.50;99.90;;;;;;5035156;28;20234;-68
2021/11/13 04:42:40;;;;;;;31.33;22.17;;;4.50;99.90;;;;;;5034929;28;20650;-68
2021/11/13 04:45:07;;;;;;;33.55;23.45;;;4.60;99.90;;;;;;5034611;28;20208;-67
2021/11/13 04:47:34;;;;;;;32.50;23.35;;;4.60;99.90;;;;;;5034996;28;20303;-67
2021/11/13 04:50:02;;;;;;;38.17;25.90;;;4.40;99.90;;;;;;5034908;28;20294;-67
2021/11/13 04:52:28;;;;;;;38.30;24.80;;;4.30;99.90;;;;;;5034868;28;20200;-67
2021/11/13 04:54:57;;;;;;;37.75;26.13;;;4.20;99.90;;;;;;5034552;28;20204;-67
2021/11/13 04:57:24;;;;;;;38.05;25.25;;;4.20;99.90;;;;;;5034576;28;20795;-67
2021/11/13 04:59:51;;;;;;;36.17;24.58;;;4.20;99.90;;;;;;5034525;28;20294;-67
2021/11/13 05:02:18;;;;;;;30.83;22.42;;;4.30;99.90;;;;;;5034876;28;20246;-68
2021/11/13 05:04:45;;;;;;;28.85;21.30;;;4.50;99.90;;;;;;5034409;28;20294;-68
2021/11/13 05:07:12;;;;;;;31.75;22.65;;;4.70;99.90;;;;;;5034331;28;20234;-67
2021/11/13 05:09:39;;;;;;;29.95;21.50;;;4.80;99.90;;;;;;5034258;28;20678;-67
2021/11/13 05:12:08;;;;;;;31.77;21.55;;;4.80;99.90;;;;;;5034492;28;20291;-67
2021/11/13 05:14:35;;;;;;;29.08;21.00;;;4.80;99.90;;;;;;5034216;28;20210;-68
2021/11/13 05:17:01;;;;;;;31.90;20.42;;;4.70;99.90;;;;;;5034264;28;20239;-67
2021/11/13 05:19:28;;;;;;;31.02;21.55;;;4.70;99.90;;;;;;5034355;28;20239;-67
2021/11/13 05:21:55;;;;;;;29.70;21.70;;;4.60;99.90;;;;;;5033882;28;20311;-68
2021/11/13 05:24:22;;;;;;;29.42;22.08;;;4.70;99.90;;;;;;5033773;28;20219;-68
2021/11/13 05:26:49;;;;;;;30.48;22.02;;;4.70;99.90;;;;;;5034125;28;20219;-67
2021/11/13 05:29:17;;;;;;;30.25;21.95;;;4.80;99.90;;;;;;5033965;28;20205;-67
2021/11/13 05:31:44;;;;;;;25.55;20.50;;;5.00;99.90;;;;;;5034175;28;20558;-67
2021/11/13 05:34:13;;;;;;;29.70;20.65;;;5.00;99.90;;;;;;5034085;28;20215;-67
2021/11/13 05:36:40;;;;;;;32.72;22.83;;;4.90;99.90;;;;;;5033823;28;20255;-68
2021/11/13 05:39:07;;;;;;;27.23;20.30;;;4.80;99.90;;;;;;5033904;28;20214;-67
2021/11/13 05:41:35;;;;;;;25.20;19.55;;;5.00;99.90;;;;;;5033951;28;20569;-67
2021/11/13 05:44:02;;;;;;;28.35;20.92;;;5.00;99.90;;;;;;5033830;28;20212;-67
2021/11/13 05:46:30;;;;;;;27.98;21.70;;;4.90;99.90;;;;;;5033688;28;20200;-68
2021/11/13 05:48:57;;;;;;;29.08;20.80;;;4.80;99.90;;;;;;5034006;28;20199;-67
2021/11/13 05:51:24;;;;;;;28.13;21.67;;;4.70;99.90;;;;;;5033751;28;20299;-68
2021/11/13 05:53:51;;;;;;;30.48;22.35;;;4.70;99.90;;;;;;5033858;28;20231;-68
2021/11/13 05:56:17;;;;;;;29.45;21.83;;;4.80;99.90;;;;;;5033534;28;20200;-68
2021/11/13 05:58:44;;;;;;;31.27;22.20;;;4.70;99.90;;;;;;5033832;28;20204;-68
2021/11/13 06:01:11;;;;;;;30.38;22.20;;;4.60;99.90;;;;;;5033707;28;20298;-67
2021/11/13 06:03:39;;;;;;;30.23;23.20;;;4.50;99.90;;;;;;5033350;28;20316;-67
2021/11/13 06:06:06;;;;;;;40.05;25.83;;;4.40;99.90;;;;;;5033251;28;20218;-67
2021/11/13 06:08:33;;;;;;;33.40;24.35;;;4.50;99.90;;;;;;5033598;28;20743;-67
2021/11/13 06:11:00;;;;;;;34.78;23.55;;;4.50;99.90;;;;;;5033601;28;20204;-67
2021/11/13 06:13:27;;;;;;;31.85;23.55;;;4.60;99.90;;;;;;5033560;28;20228;-67
2021/11/13 06:15:54;;;;;;;33.13;23.60;;;4.70;99.90;;;;;;5033000;28;20218;-68
2021/11/13 06:18:20;;;;;;;31.17;22.50;;;4.80;99.90;;;;;;5033489;28;20232;-67
2021/11/13 06:20:49;;;;;;;34.08;23.42;;;4.80;99.90;;;;;;5033218;28;20658;-67
2021/11/13 06:23:15;;;;;;;32.22;23.73;;;4.80;99.90;;;;;;5033294;28;20750;-67
2021/11/13 06:25:43;;;;;;;32.35;23.50;;;5.00;99.90;;;;;;5033314;28;20200;-67
2021/11/13 06:28:09;;;;;;;31.50;23.40;;;5.10;99.90;;;;;;5033409;28;20311;-67
2021/11/13 06:30:36;;;;;;;31.75;24.60;;;5.10;99.90;;;;;;5033418;28;20204;-67
2021/11/13 06:33:03;;;;;;;29.67;23.10;;;5.20;99.90;;;;;;5035147;28;20615;-67
2021/11/13 06:35:30;;;;;;;29.35;22.27;;;5.30;99.90;;;;;;5037282;28;20206;-67
2021/11/13 06:37:58;;;;;;;33.28;22.80;;;5.40;99.90;;;;;;5037171;28;20227;-67
2021/11/13 06:40:25;;;;;;;30.33;23.42;;;5.50;99.90;;;;;;5037583;28;20235;-67
2021/11/13 06:42:52;;;;;;;29.80;22.80;;;5.50;99.90;;;;;;5037220;28;20262;-67
2021/11/13 06:45:20;;;;;;;29.60;23.00;;;5.60;99.90;;;;;;5036945;28;20286;-67
2021/11/13 06:47:47;;;;;;;30.92;23.25;;;5.50;99.90;;;;;;5037450;28;20220;-68
2021/11/13 06:50:14;;;;;;;29.08;23.02;;;5.50;99.90;;;;;;5037231;28;20570;-67
2021/11/13 06:52:42;;;;;;;33.95;24.23;;;5.30;99.90;;;;;;5037174;28;20200;-67
2021/11/13 06:55:11;;;;;;;30.60;24.08;;;5.20;99.90;;;;;;5036914;28;20303;-67
2021/11/13 06:57:38;;;;;;;35.22;25.60;;;5.10;99.90;;;;;;5036764;28;20307;-67
2021/11/13 07:00:08;;;;;;;33.55;24.73;;;5.10;99.90;;;;;;5036974;28;20204;-68
2021/11/13 07:02:35;;;;;;;32.40;24.42;;;5.20;99.90;;;;;;5036651;28;20224;-67
2021/11/13 07:05:02;;;;;;;30.95;22.60;;;5.20;99.90;;;;;;5036747;28;20365;-67
2021/11/13 07:07:32;;;;;;;27.70;21.50;;;5.30;99.90;;;;;;5036653;28;20224;-67
2021/11/13 07:09:59;;;;;;;27.38;21.95;;;5.30;99.90;;;;;;5037001;28;20212;-67
2021/11/13 07:12:27;;;;;;;27.27;21.92;;;5.20;99.90;;;;;;5036732;28;20207;-67
2021/11/13 07:14:54;;;;;;;30.52;23.52;;;5.20;99.90;;;;;;5036596;28;20212;-67
2021/11/13 07:17:21;;;;;;;31.48;24.00;;;5.10;99.90;;;;;;5036432;28;20236;-67
2021/11/13 07:19:48;;;;;;;31.40;22.50;;;4.90;99.90;;;;;;5036515;28;20752;-67
2021/11/13 07:22:16;;;;;;;31.50;23.75;;;4.90;99.90;;;;;;5036544;28;20220;-67
2021/11/13 07:24:44;;;;;;;30.92;22.75;;;5.00;99.90;;;;;;5036359;28;20618;-67
2021/11/13 07:27:11;;;;;;;33.63;23.63;;;5.10;99.90;;;;;;5036448;28;20579;-67
2021/11/13 07:29:44;;;;;;;29.85;23.00;;;5.30;99.90;;;;;;5036328;28;20242;-67
2021/11/13 07:32:11;;;;;;;28.80;22.73;;;5.30;99.90;;;;;;5036504;28;20207;-67
2021/11/13 07:34:38;;;;;;;30.63;22.80;;;5.30;99.90;;;;;;5036174;28;20204;-67
2021/11/13 07:37:05;;;;;;;29.75;21.92;;;5.40;99.90;;;;;;5036242;28;20227;-67
2021/11/13 07:39:32;;;;;;;31.35;24.15;;;5.30;99.90;;;;;;5036301;28;20298;-67
2021/11/13 07:41:59;;;;;;;27.52;21.25;;;5.40;99.90;;;;;;5036186;28;20231;-67
2021/11/13 07:44:26;;;;;;;34.22;26.45;;;5.40;99.90;;;;;;5035882;28;20703;-67
2021/11/13 07:46:55;;;;;;;33.67;24.17;;;5.30;99.90;;;;;;5036015;28;20585;-67
2021/11/13 07:49:22;;;;;;;43.63;24.42;;;5.30;99.90;;;;;;5036233;28;20662;-67
2021/11/13 07:51:50;;;;;;;29.20;21.75;;;5.20;99.90;;;;;;5036051;28;20204;-67
2021/11/13 07:54:17;;;;;;;32.92;23.88;;;5.20;99.90;;;;;;5035978;28;20673;-67
2021/11/13 07:56:44;;;;;;;27.58;22.25;;;5.20;99.90;;;;;;5035519;28;20224;-67
2021/11/13 07:59:13;;;;;;;28.67;22.95;;;5.20;99.90;;;;;;5035998;28;20311;-67
2021/11/13 08:01:40;;;;;;;27.92;21.98;;;5.30;99.90;;;;;;5035882;28;20205;-67
2021/11/13 08:04:08;;;;;;;30.05;23.10;;;5.40;99.90;;;;;;5036082;28;20232;-67
2021/11/13 08:06:35;;;;;;;31.42;23.17;;;5.50;99.90;;;;;;5035514;28;20224;-67
2021/11/13 08:09:02;;;;;;;27.92;22.95;;;5.60;99.90;;;;;;5035743;28;20207;-68
2021/11/13 08:11:29;;;;;;;30.98;22.95;;;5.60;99.90;;;;;;5036024;28;20215;-67
2021/11/13 08:13:57;;;;;;;34.53;24.65;;;5.60;99.90;;;;;;5035609;28;20200;-68
2021/11/13 08:16:23;;;;;;;31.27;22.85;;;5.60;99.90;;;;;;5035351;28;20216;-68
2021/11/13 08:18:50;;;;;;;31.17;22.50;;;5.80;99.90;;;;;;5035356;28;20662;-67
2021/11/13 08:21:21;;;;;;;26.98;21.20;;;5.90;99.90;;;;;;5035504;28;20254;-67
2021/11/13 08:23:47;;;;;;;28.33;22.08;;;6.10;99.90;;;;;;5035364;28;20227;-68
2021/11/13 08:26:14;;;;;;;25.58;21.70;;;6.40;99.90;;;;;;5034932;28;20211;-68
2021/11/13 08:28:41;;;;;;;28.60;21.92;;;6.60;99.90;;;;;;5035439;28;20204;-67
2021/11/13 08:31:08;;;;;;;27.20;21.95;;;6.50;99.90;;;;;;5035557;28;20210;-68
2021/11/13 08:33:35;;;;;;;26.25;20.85;;;6.50;99.90;;;;;;5035309;28;20200;-68
2021/11/13 08:36:02;;;;;;;29.33;21.98;;;6.60;99.90;;;;;;5034890;28;20700;-68
2021/11/13 08:38:30;;;;;;;26.88;22.40;;;6.80;99.90;;;;;;5035214;28;20315;-68
2021/11/13 08:40:58;;;;;;;27.23;22.38;;;6.80;99.90;;;;;;5035177;28;20295;-67
2021/11/13 08:43:25;;;;;;;28.98;23.45;;;6.70;99.90;;;;;;5035089;28;20224;-68
2021/11/13 08:45:54;;;;;;;27.95;22.67;;;6.50;99.90;;;;;;5034801;28;20204;-68
2021/11/13 08:48:21;;;;;;;30.58;22.83;;;6.60;99.90;;;;;;5034693;28;20224;-68
2021/11/13 08:50:48;;;;;;;30.60;23.27;;;6.70;99.90;;;;;;5034793;28;20204;-68
2021/11/13 08:53:15;;;;;;;28.23;23.08;;;6.70;99.90;;;;;;5034975;28;20565;-67
2021/11/13 08:55:44;;;;;;;28.30;22.08;;;6.60;99.90;;;;;;5034081;28;20204;-67
2021/11/13 08:58:12;;;;;;;27.60;22.08;;;6.70;99.90;;;;;;5034844;28;20589;-68
2021/11/13 09:00:43;;;;;;;27.55;21.95;;;6.80;99.90;;;;;;5034678;28;20658;-68
2021/11/13 09:03:13;;;;;;;29.05;22.90;;;6.80;99.90;;;;;;5034433;28;20224;-68
2021/11/13 09:05:40;;;;;;;28.77;22.05;;;6.70;99.90;;;;;;5034758;28;20210;-68
2021/11/13 09:08:09;;;;;;;27.40;22.70;;;6.80;99.90;;;;;;5034603;28;20226;-68
2021/11/13 09:10:37;;;;;;;28.15;23.25;;;6.80;99.90;;;;;;5034592;28;20571;-68
2021/11/13 09:13:06;;;;;;;28.33;22.73;;;6.90;99.90;;;;;;5034600;28;20275;-68
2021/11/13 09:15:35;;;;;;;30.13;24.40;;;7.00;99.90;;;;;;5033935;28;20204;-68
2021/11/13 09:18:03;;;;;;;29.10;22.83;;;7.10;99.90;;;;;;5034479;28;20310;-68
2021/11/13 09:20:30;;;;;;;30.13;23.75;;;7.00;99.90;;;;;;5034413;28;20214;-68
2021/11/13 09:22:57;;;;;;;26.88;21.30;;;7.10;99.90;;;;;;5034389;28;20711;-68
2021/11/13 09:25:25;;;;;;;27.95;22.65;;;7.20;99.90;;;;;;5034058;28;20292;-68
2021/11/13 09:27:53;;;;;;;28.95;22.35;;;7.40;99.90;;;;;;5034010;28;20314;-68
2021/11/13 09:30:23;;;;;;;27.15;22.58;;;7.50;99.90;;;;;;5034260;28;20210;-68
2021/11/13 09:32:51;;;;;;;29.52;23.45;;;7.60;99.90;;;;;;5034209;28;20204;-68
2021/11/13 09:35:19;;;;;;;25.80;21.63;;;7.60;99.90;;;;;;5033804;28;20204;-68
2021/11/13 09:37:47;;;;;;;29.17;23.65;;;7.60;99.90;;;;;;5033677;28;20808;-68
2021/11/13 09:40:16;;;;;;;27.17;22.73;;;7.50;99.90;;;;;;5034100;28;20211;-68
2021/11/13 09:42:44;;;;;;;27.42;22.50;;;7.50;99.90;;;;;;5034079;28;20200;-68
2021/11/13 09:45:12;;;;;;;27.95;22.63;;;7.70;99.90;;;;;;5033796;28;20208;-68
2021/11/13 09:47:42;;;;;;;28.08;22.02;;;7.60;99.90;;;;;;5033961;28;20232;-68
2021/11/13 09:50:10;;;;;;;26.92;21.98;;;7.70;99.90;;;;;;5033782;28;20676;-68
2021/11/13 09:52:37;;;;;;;23.48;20.83;;;7.70;99.90;;;;;;5033828;28;20200;-68
2021/11/13 09:55:06;;;;;;;24.83;21.15;;;7.80;99.90;;;;;;5033525;28;20207;-68
2021/11/13 09:57:33;;;;;;;24.73;21.67;;;8.00;99.90;;;;;;5033768;28;20224;-68
2021/11/13 10:00:00;;;;;;;23.92;20.98;;;8.10;99.90;;;;;;5033751;28;20700;-68
2021/11/13 10:02:26;;;;;;;24.13;20.45;;;8.30;99.90;;;;;;5033978;28;20204;-68
2021/11/13 10:04:55;;;;;;;24.45;20.10;;;8.40;99.90;;;;;;5033438;28;20230;-68
2021/11/13 10:07:21;;;;;;;28.67;20.90;;;8.50;99.90;;;;;;5032664;28;20323;-69
2021/11/13 10:09:50;;;;;;;24.77;21.80;;;8.60;99.90;;;;;;5033661;28;20204;-68
2021/11/13 10:12:18;;;;;;;23.55;20.80;;;8.60;99.90;;;;;;5033392;28;20216;-68
2021/11/13 10:14:45;;;;;;;24.98;21.23;;;8.70;99.90;;;;;;5033366;28;20295;-68
2021/11/13 10:17:21;;;;;;;28.55;22.52;;;8.60;99.90;;;;;;5033263;28;20668;-68
2021/11/13 10:19:49;;;;;;;25.95;22.40;;;8.60;99.90;;;;;;5033640;28;20550;-67
2021/11/13 10:22:17;;;;;;;27.17;22.65;;;8.60;99.90;;;;;;5033457;28;20208;-68
2021/11/13 10:24:46;;;;;;;25.75;22.08;;;8.60;99.90;;;;;;5032989;28;20705;-68
2021/11/13 10:27:14;;;;;;;28.10;23.33;;;8.60;99.90;;;;;;5033271;28;20232;-68
2021/11/13 10:29:43;;;;;;;26.60;23.75;;;8.50;99.90;;;;;;5033209;28;20741;-68
2021/11/13 10:32:13;;;;;;;30.20;24.63;;;8.60;99.90;;;;;;5033122;28;20208;-68
2021/11/13 10:34:43;;;;;;;26.42;22.77;;;8.60;99.90;;;;;;5033167;28;20270;-68
2021/11/13 10:37:15;;;;;;;31.05;24.15;;;8.50;99.90;;;;;;5033420;28;20278;-68
2021/11/13 10:39:46;;;;;;;27.38;24.00;;;8.60;99.90;;;;;;5033276;28;20704;-68
2021/11/13 10:42:15;;;;;;;36.00;24.83;;;8.70;99.90;;;;;;5033416;28;20208;-68
2021/11/13 10:44:48;;;;;;;28.50;24.15;;;8.80;99.90;;;;;;5033017;28;20255;-68
2021/11/13 10:47:18;;;;;;;30.58;24.48;;;8.70;99.90;;;;;;5033336;28;20224;-68
2021/11/13 10:49:47;;;;;;;28.63;24.80;;;8.80;99.90;;;;;;5033115;28;20205;-68
2021/11/13 10:52:16;;;;;;;26.73;23.85;;;8.80;99.90;;;;;;5033261;28;20300;-68
2021/11/13 10:54:47;;;;;;;29.85;24.48;;;8.80;99.90;;;;;;5033023;28;20291;-68
2021/11/13 10:57:14;;;;;;;27.88;23.20;;;8.80;99.90;;;;;;5032988;28;20705;-68
2021/11/13 10:59:44;;;;;;;29.35;23.67;;;8.80;99.90;;;;;;5033167;28;20210;-68
2021/11/13 11:02:13;;;;;;;27.80;22.65;;;8.90;99.90;;;;;;5033258;28;20302;-68
2021/11/13 11:04:42;;;;;;;28.48;24.85;;;9.00;99.90;;;;;;5032832;28;20601;-68
2021/11/13 11:07:12;;;;;;;30.80;25.80;;;8.90;99.90;;;;;;5032935;28;20315;-68
2021/11/13 11:09:40;;;;;;;30.33;24.48;;;8.80;99.90;;;;;;5033118;28;20223;-68
2021/11/13 11:12:12;;;;;;;30.33;25.55;;;8.70;99.90;;;;;;5032943;28;20200;-68
2021/11/13 11:14:41;;;;;;;30.08;25.05;;;8.50;99.90;;;;;;5032860;28;20200;-68
2021/11/13 11:17:09;;;;;;;33.25;25.48;;;8.40;99.90;;;;;;5032616;28;20232;-68
2021/11/13 11:19:37;;;;;;;30.30;25.65;;;8.40;99.90;;;;;;5035527;28;20547;-68
2021/11/13 11:22:07;;;;;;;28.08;25.05;;;8.40;99.90;;;;;;5036628;28;20243;-68
2021/11/13 11:24:40;;;;;;;29.95;24.48;;;8.40;99.90;;;;;;5035996;28;20220;-68
2021/11/13 11:27:18;;;;;;;31.17;25.02;;;8.60;99.90;;;;;;5036565;28;20232;-68
2021/11/13 11:29:49;;;;;;;30.20;25.13;;;8.50;99.90;;;;;;5036635;28;20299;-68
2021/11/13 11:32:20;;;;;;;30.60;24.67;;;8.60;99.90;;;;;;5036455;28;20219;-68
2021/11/13 11:34:49;;;;;;;28.25;24.90;;;8.70;99.90;;;;;;5036435;28;20295;-69
2021/11/13 11:37:19;;;;;;;27.90;23.88;;;8.70;99.90;;;;;;5036011;28;20232;-68
2021/11/13 11:39:48;;;;;;;26.73;23.88;;;8.70;99.90;;;;;;5036467;28;20591;-68
2021/11/13 11:42:17;;;;;;;30.55;24.98;;;8.80;99.90;;;;;;5036469;28;20208;-68
2021/11/13 11:44:47;;;;;;;30.02;24.00;;;8.80;99.90;;;;;;5035868;28;20717;-68
2021/11/13 11:47:16;;;;;;;30.67;26.17;;;8.90;99.90;;;;;;5036038;28;20295;-68
2021/11/13 11:49:46;;;;;;;27.08;23.63;;;9.00;99.90;;;;;;5036278;28;20615;-68
2021/11/13 11:52:14;;;;;;;30.52;24.40;;;9.00;99.90;;;;;;5036172;28;20200;-68
2021/11/13 11:54:41;;;;;;;32.90;25.40;;;9.00;99.90;;;;;;5035886;28;20257;-69
2021/11/13 11:57:09;;;;;;;28.33;24.80;;;9.00;99.90;;;;;;5035961;28;20735;-69
2021/11/13 11:59:38;;;;;;;29.95;25.52;;;8.90;99.90;;;;;;5036200;28;20253;-68
2021/11/13 12:02:11;;;;;;;28.55;24.98;;;8.90;99.90;;;;;;5035861;28;20208;-69
2021/11/13 12:04:38;;;;;;;28.27;24.65;;;8.90;99.90;;;;;;5035397;28;20260;-69
2021/11/13 12:07:07;;;;;;;27.48;24.45;;;9.00;99.90;;;;;;5035438;28;20224;-69
2021/11/13 12:09:34;;;;;;;30.00;26.10;;;9.00;99.90;;;;;;5035847;28;20212;-68
2021/11/13 12:12:15;;;;;;;29.25;24.67;;;9.00;99.90;;;;;;5035630;28;20200;-69
2021/11/13 12:14:44;;;;;;;33.05;25.52;;;9.00;99.90;;;;;;5035440;28;20204;-69
2021/11/13 12:17:35;;;;;;;32.45;25.80;;;9.10;99.90;;;;;;5035367;28;20236;-69
2021/11/13 12:20:32;;;;;;;34.28;26.85;;;9.10;99.90;;;;;;5020888;28;20298;-68
2021/11/13 12:23:06;;;;;;;32.20;27.38;;;9.00;99.90;;;;;;5035470;28;20204;-69
2021/11/13 12:25:35;;;;;;;29.98;26.10;;;9.00;99.90;;;;;;5035318;28;20228;-69
2021/11/13 12:28:11;;;;;;;31.70;28.05;;;9.00;99.90;;;;;;5035121;28;20720;-69
2021/11/13 12:30:46;;;;;;;32.10;26.63;;;9.00;99.90;;;;;;5034388;28;20573;-68
2021/11/13 12:33:52;;;;;;;30.65;25.45;;;9.00;99.90;;;;;;5035098;28;20258;-69
2021/11/13 12:36:23;;;;;;;34.60;27.83;;;9.10;99.90;;;;;;5035196;28;20613;-68
2021/11/13 12:38:59;;;;;;;33.13;27.63;;;9.10;99.90;;;;;;5035321;28;20287;-69
2021/11/13 12:41:28;;;;;;;32.92;26.10;;;9.10;99.90;;;;;;5035207;28;20212;-69